createdAt,value
2023-02-15T00:00:12.407Z,9.13
2023-02-15T00:02:15.162Z,9.13
2023-02-15T00:04:21.694Z,9.10
2023-02-15T00:06:25.122Z,9.08
2023-02-15T00:08:27.965Z,9.09
2023-02-15T00:10:32.106Z,9.06
2023-02-15T00:12:35.141Z,9.04
2023-02-15T00:14:37.851Z,9.01
2023-02-15T00:16:42.137Z,8.97
2023-02-15T00:18:44.932Z,9.01
2023-02-15T00:20:47.658Z,9.00
2023-02-15T00:22:50.435Z,9.00
2023-02-15T00:24:53.245Z,8.97
2023-02-15T00:26:57.333Z,8.97
2023-02-15T00:29:00.867Z,8.97
2023-02-15T00:31:07.885Z,8.95
2023-02-15T00:33:10.593Z,8.91
2023-02-15T00:35:13.374Z,8.93
2023-02-15T00:37:16.343Z,8.91
2023-02-15T00:39:19.914Z,8.92
2023-02-15T00:41:22.764Z,8.93
2023-02-15T00:43:27.768Z,8.89
2023-02-15T00:45:30.521Z,8.87
2023-02-15T00:47:33.283Z,8.87
2023-02-15T00:49:36.249Z,8.86
2023-02-15T00:51:40.298Z,8.85
2023-02-15T00:53:43.141Z,8.83
2023-02-15T00:55:46.149Z,8.82
2023-02-15T00:57:48.905Z,8.81
2023-02-15T00:59:53.189Z,8.81
2023-02-15T01:01:56.040Z,8.81
2023-02-15T01:03:58.863Z,8.80
2023-02-15T01:06:02.387Z,8.81
2023-02-15T01:08:06.010Z,8.81
2023-02-15T01:10:09.725Z,8.83
2023-02-15T01:12:12.536Z,8.82
2023-02-15T01:14:15.533Z,8.80
2023-02-15T01:16:19.982Z,8.80
2023-02-15T01:18:22.933Z,8.78
2023-02-15T01:20:27.964Z,8.78
2023-02-15T01:22:30.797Z,8.79
2023-02-15T01:24:34.082Z,8.79
2023-02-15T01:26:36.860Z,8.78
2023-02-15T01:28:40.160Z,8.79
2023-02-15T01:30:43.560Z,8.79
2023-02-15T01:32:48.066Z,8.79
2023-02-15T01:34:50.959Z,8.79
2023-02-15T01:36:53.774Z,8.78
2023-02-15T01:38:58.897Z,8.75
2023-02-15T01:41:15.540Z,8.74
2023-02-15T01:43:19.111Z,8.73
2023-02-15T01:45:25.778Z,8.74
2023-02-15T01:47:38.563Z,8.71
2023-02-15T01:49:44.362Z,8.71
2023-02-15T01:51:50.145Z,8.72
2023-02-15T01:53:55.825Z,8.73
2023-02-15T01:56:04.661Z,8.74
2023-02-15T01:58:08.482Z,8.75
2023-02-15T02:00:12.158Z,8.77
2023-02-15T02:02:17.301Z,8.80
2023-02-15T02:04:31.829Z,8.81
2023-02-15T02:06:38.877Z,8.83
2023-02-15T02:08:42.234Z,8.82
2023-02-15T02:10:45.045Z,8.84
2023-02-15T02:12:51.279Z,8.83
2023-02-15T02:14:55.873Z,8.84
2023-02-15T02:17:07.443Z,8.85
2023-02-15T02:19:39.902Z,8.86
2023-02-15T02:22:23.146Z,8.87
2023-02-15T02:24:49.283Z,8.87
2023-02-15T02:27:31.666Z,8.87
2023-02-15T02:30:06.746Z,8.85
2023-02-15T02:32:42.124Z,8.85
2023-02-15T02:34:53.413Z,8.84
2023-02-15T02:37:03.520Z,8.83
2023-02-15T02:39:15.409Z,8.79
2023-02-15T02:41:26.918Z,8.79
2023-02-15T02:43:35.942Z,8.75
2023-02-15T02:45:49.004Z,8.74
2023-02-15T02:47:55.959Z,8.76
2023-02-15T02:50:03.134Z,8.73
2023-02-15T02:52:08.614Z,8.72
2023-02-15T02:54:11.409Z,8.70
2023-02-15T02:56:22.970Z,8.69
2023-02-15T02:58:31.485Z,8.69
2023-02-15T03:00:40.302Z,8.69
2023-02-15T03:02:46.589Z,8.70
2023-02-15T03:04:59.366Z,8.70
2023-02-15T03:07:06.547Z,8.70
2023-02-15T03:09:15.436Z,8.67
2023-02-15T03:11:18.365Z,8.66
2023-02-15T03:13:21.738Z,8.66
2023-02-15T03:15:48.891Z,8.66
2023-02-15T03:17:58.473Z,8.64
2023-02-15T03:20:05.277Z,8.65
2023-02-15T03:22:15.315Z,8.64
2023-02-15T03:24:22.019Z,8.62
2023-02-15T03:26:28.900Z,8.62
2023-02-15T03:28:35.678Z,8.61
2023-02-15T03:30:42.046Z,8.62
2023-02-15T03:32:46.254Z,8.60
2023-02-15T03:34:49.294Z,8.58
2023-02-15T03:36:58.936Z,8.56
2023-02-15T03:39:10.362Z,8.56
2023-02-15T03:41:14.633Z,8.58
2023-02-15T03:43:22.859Z,8.57
2023-02-15T03:45:30.328Z,8.55
2023-02-15T03:47:37.371Z,8.53
2023-02-15T03:49:46.623Z,8.51
2023-02-15T03:51:51.990Z,8.52
2023-02-15T03:53:56.363Z,8.52
2023-02-15T03:56:01.098Z,8.51
2023-02-15T03:58:22.511Z,8.51
2023-02-15T04:00:43.531Z,8.53
2023-02-15T04:03:01.266Z,8.51
2023-02-15T04:05:04.141Z,8.50
2023-02-15T04:07:08.900Z,8.53
2023-02-15T04:09:29.299Z,8.54
2023-02-15T04:11:33.712Z,8.56
2023-02-15T04:13:57.602Z,8.55
2023-02-15T04:16:06.631Z,8.55
2023-02-15T04:18:10.022Z,8.56
2023-02-15T04:20:30.582Z,8.56
2023-02-15T04:22:50.943Z,8.57
2023-02-15T04:25:12.331Z,8.54
2023-02-15T04:27:17.793Z,8.53
2023-02-15T04:29:21.493Z,8.53
2023-02-15T04:31:24.653Z,8.52
2023-02-15T04:33:27.468Z,8.52
2023-02-15T04:35:32.532Z,8.52
2023-02-15T04:37:35.342Z,8.51
2023-02-15T04:39:38.105Z,8.49
2023-02-15T04:41:40.971Z,8.49
2023-02-15T04:43:45.253Z,8.50
2023-02-15T04:45:51.182Z,8.49
2023-02-15T04:47:53.181Z,8.46
2023-02-15T04:49:58.041Z,8.45
2023-02-15T04:52:01.035Z,8.44
2023-02-15T04:54:03.885Z,8.43
2023-02-15T04:56:06.872Z,8.42
2023-02-15T04:58:09.593Z,8.42
2023-02-15T05:00:14.593Z,8.42
2023-02-15T05:02:17.340Z,8.39
2023-02-15T05:04:20.202Z,8.38
2023-02-15T05:06:23.628Z,8.37
2023-02-15T05:08:26.596Z,8.39
2023-02-15T05:10:29.386Z,8.37
2023-02-15T05:12:32.162Z,8.34
2023-02-15T05:14:34.912Z,8.29
2023-02-15T05:16:39.506Z,8.33
2023-02-15T05:18:42.402Z,8.32
2023-02-15T05:20:45.356Z,8.32
2023-02-15T05:22:48.161Z,8.34
2023-02-15T05:25:08.522Z,8.33
2023-02-15T05:27:30.704Z,8.34
2023-02-15T05:29:33.492Z,8.32
2023-02-15T05:31:37.771Z,8.32
2023-02-15T05:33:42.691Z,8.33
2023-02-15T05:35:45.565Z,8.33
2023-02-15T05:37:48.375Z,8.32
2023-02-15T05:39:51.506Z,8.34
2023-02-15T05:41:54.233Z,8.34
2023-02-15T05:43:57.771Z,8.34
2023-02-15T05:46:01.382Z,8.33
2023-02-15T05:48:04.650Z,8.32
2023-02-15T05:50:10.294Z,8.32
2023-02-15T05:52:13.330Z,8.30
2023-02-15T05:54:16.140Z,8.29
2023-02-15T05:56:18.956Z,8.31
2023-02-15T05:58:21.820Z,8.32
2023-02-15T06:00:24.809Z,8.34
2023-02-15T06:02:27.620Z,8.36
2023-02-15T06:04:30.590Z,8.36
2023-02-15T06:06:35.475Z,8.37
2023-02-15T06:08:39.930Z,8.37
2023-02-15T06:10:42.763Z,8.36
2023-02-15T06:12:45.990Z,8.37
2023-02-15T06:14:48.918Z,8.36
2023-02-15T06:16:52.272Z,8.35
2023-02-15T06:18:55.409Z,8.35
2023-02-15T06:20:58.708Z,8.36
2023-02-15T06:23:03.046Z,8.38
2023-02-15T06:25:06.522Z,8.39
2023-02-15T06:27:09.386Z,8.38
2023-02-15T06:29:12.483Z,8.36
2023-02-15T06:31:15.310Z,8.34
2023-02-15T06:33:18.211Z,8.35
2023-02-15T06:35:20.963Z,8.35
2023-02-15T06:37:23.736Z,8.35
2023-02-15T06:39:27.988Z,8.35
2023-02-15T06:41:30.967Z,8.35
2023-02-15T06:43:34.787Z,8.35
2023-02-15T06:45:37.742Z,8.33
2023-02-15T06:47:40.731Z,8.34
2023-02-15T06:49:43.506Z,8.35
2023-02-15T06:51:46.304Z,8.30
2023-02-15T06:53:50.344Z,8.33
2023-02-15T06:55:56.540Z,8.34
2023-02-15T06:58:02.253Z,8.37
2023-02-15T07:00:07.003Z,8.35
2023-02-15T07:02:10.793Z,8.38
2023-02-15T07:04:13.688Z,8.41
2023-02-15T07:06:20.509Z,8.41
2023-02-15T07:08:23.213Z,8.42
2023-02-15T07:10:26.196Z,8.42
2023-02-15T07:12:45.416Z,8.45
2023-02-15T07:14:48.644Z,8.45
2023-02-15T07:16:51.526Z,8.46
2023-02-15T07:18:54.244Z,8.45
2023-02-15T07:20:57.102Z,8.46
2023-02-15T07:22:59.910Z,8.49
2023-02-15T07:25:02.773Z,8.52
2023-02-15T07:27:05.645Z,8.51
2023-02-15T07:29:10.004Z,8.53
2023-02-15T07:31:12.726Z,8.56
2023-02-15T07:33:28.098Z,8.59
2023-02-15T07:35:31.057Z,8.57
2023-02-15T07:37:34.007Z,8.57
2023-02-15T07:39:37.255Z,8.57
2023-02-15T07:41:40.220Z,8.57
2023-02-15T07:43:44.844Z,8.58
2023-02-15T07:45:49.064Z,8.62
2023-02-15T07:47:51.654Z,8.59
2023-02-15T07:49:54.646Z,8.62
2023-02-15T07:51:57.557Z,8.64
2023-02-15T07:54:00.449Z,8.68
2023-02-15T07:56:06.778Z,8.70
2023-02-15T07:58:09.627Z,8.73
2023-02-15T08:00:14.210Z,8.76
2023-02-15T08:02:18.543Z,8.79
2023-02-15T08:04:21.490Z,8.80
2023-02-15T08:06:26.989Z,8.82
2023-02-15T08:08:33.125Z,8.83
2023-02-15T08:10:55.912Z,8.86
2023-02-15T08:12:58.791Z,8.90
2023-02-15T08:15:01.668Z,8.90
2023-02-15T08:17:07.980Z,8.88
2023-02-15T08:19:14.396Z,8.88
2023-02-15T08:21:17.529Z,8.88
2023-02-15T08:23:20.785Z,8.93
2023-02-15T08:25:23.926Z,8.94
2023-02-15T08:27:27.743Z,8.98
2023-02-15T08:29:32.456Z,9.01
2023-02-15T08:31:36.537Z,9.05
2023-02-15T08:33:43.791Z,9.06
2023-02-15T08:35:48.175Z,9.04
2023-02-15T08:37:51.050Z,9.06
2023-02-15T08:39:54.083Z,9.04
2023-02-15T08:41:57.401Z,9.05
2023-02-15T08:44:02.798Z,9.09
2023-02-15T08:46:05.936Z,9.11
2023-02-15T08:48:09.822Z,9.12
2023-02-15T08:50:12.627Z,9.15
2023-02-15T08:52:17.245Z,9.20
2023-02-15T08:54:22.652Z,9.22
2023-02-15T08:56:26.877Z,9.22
2023-02-15T08:58:31.558Z,9.22
2023-02-15T09:00:34.439Z,9.26
2023-02-15T09:02:38.007Z,9.24
2023-02-15T09:04:41.818Z,9.25
2023-02-15T09:06:48.075Z,9.26
2023-02-15T09:08:53.725Z,9.26
2023-02-15T09:10:56.924Z,9.24
2023-02-15T09:12:59.802Z,9.28
2023-02-15T09:15:03.230Z,9.28
2023-02-15T09:17:06.367Z,9.26
2023-02-15T09:19:09.917Z,9.28
2023-02-15T09:21:15.769Z,9.27
2023-02-15T09:23:26.807Z,9.32
2023-02-15T09:25:31.636Z,9.36
2023-02-15T09:27:34.480Z,9.36
2023-02-15T09:29:37.401Z,9.37
2023-02-15T09:31:45.403Z,9.39
2023-02-15T09:33:50.462Z,9.40
2023-02-15T09:35:53.306Z,9.42
2023-02-15T09:37:56.136Z,9.45
2023-02-15T09:39:59.091Z,9.47
2023-02-15T09:42:23.726Z,9.44
2023-02-15T09:44:36.915Z,9.41
2023-02-15T09:46:54.109Z,9.39
2023-02-15T09:49:07.239Z,9.39
2023-02-15T09:51:42.931Z,9.43
2023-02-15T09:54:01.909Z,9.47
2023-02-15T09:56:14.376Z,9.48
2023-02-15T09:58:30.216Z,9.49
2023-02-15T10:00:43.609Z,9.53
2023-02-15T10:03:02.285Z,9.57
2023-02-15T10:05:24.295Z,9.59
2023-02-15T10:07:44.438Z,9.61
2023-02-15T10:10:00.475Z,9.60
2023-02-15T10:12:15.790Z,9.63
2023-02-15T10:14:49.943Z,9.64
2023-02-15T10:17:04.520Z,9.63
2023-02-15T10:19:17.366Z,9.60
2023-02-15T10:21:35.180Z,9.61
2023-02-15T10:23:52.003Z,9.59
2023-02-15T10:26:02.245Z,9.59
2023-02-15T10:28:09.826Z,9.62
2023-02-15T10:30:15.826Z,9.63
2023-02-15T10:32:25.713Z,9.65
2023-02-15T10:34:37.966Z,9.68
2023-02-15T10:36:53.767Z,9.70
2023-02-15T10:39:04.248Z,9.71
2023-02-15T10:41:20.380Z,9.72
2023-02-15T10:43:40.516Z,9.72
2023-02-15T10:45:57.660Z,9.72
2023-02-15T10:48:20.119Z,9.75
2023-02-15T10:50:34.492Z,9.75
2023-02-15T10:52:52.492Z,9.75
2023-02-15T10:55:05.178Z,9.74
2023-02-15T10:57:22.024Z,9.72
2023-02-15T10:59:44.027Z,9.74
2023-02-15T11:01:56.047Z,9.74
2023-02-15T11:04:25.126Z,9.78
2023-02-15T11:06:29.373Z,9.82
2023-02-15T11:08:35.777Z,9.81
2023-02-15T11:10:43.644Z,9.81
2023-02-15T11:12:49.016Z,9.81
2023-02-15T11:14:57.822Z,9.82
2023-02-15T11:17:11.892Z,9.84
2023-02-15T11:19:21.527Z,9.87
2023-02-15T11:21:33.458Z,9.86
2023-02-15T11:23:41.684Z,9.89
2023-02-15T11:25:48.457Z,9.89
2023-02-15T11:27:51.804Z,9.92
2023-02-15T11:30:01.538Z,9.95
2023-02-15T11:32:16.317Z,9.95
2023-02-15T11:34:26.248Z,9.96
2023-02-15T11:36:34.297Z,10.01
2023-02-15T11:38:40.394Z,10.04
2023-02-15T11:40:49.818Z,10.04
2023-02-15T11:42:55.538Z,10.03
2023-02-15T11:45:04.310Z,10.03
2023-02-15T11:47:13.245Z,10.08
2023-02-15T11:49:24.898Z,10.12
2023-02-15T11:51:29.820Z,10.14
2023-02-15T11:53:35.836Z,10.13
2023-02-15T11:55:38.748Z,10.14
2023-02-15T11:57:46.343Z,10.16
2023-02-15T11:59:53.498Z,10.18
2023-02-15T12:01:56.403Z,10.18
2023-02-15T12:04:04.032Z,10.18
2023-02-15T12:06:13.347Z,10.22
2023-02-15T12:08:21.908Z,10.26
2023-02-15T12:10:27.910Z,10.26
2023-02-15T12:12:32.992Z,10.29
2023-02-15T12:14:49.785Z,10.28
2023-02-15T12:16:55.589Z,10.31
2023-02-15T12:19:02.174Z,10.35
2023-02-15T12:21:09.228Z,10.36
2023-02-15T12:23:16.436Z,10.36
2023-02-15T12:25:25.270Z,10.38
2023-02-15T12:27:30.803Z,10.38
2023-02-15T12:29:41.278Z,10.37
2023-02-15T12:31:47.742Z,10.38
2023-02-15T12:33:54.944Z,10.38
2023-02-15T12:36:04.178Z,10.36
2023-02-15T12:38:23.159Z,10.38
2023-02-15T12:40:30.334Z,10.41
2023-02-15T12:42:44.099Z,10.44
2023-02-15T12:44:56.994Z,10.44
2023-02-15T12:47:02.397Z,10.46
2023-02-15T12:49:20.392Z,10.48
2023-02-15T12:51:25.320Z,10.51
2023-02-15T12:53:34.467Z,10.54
2023-02-15T12:55:37.606Z,10.53
2023-02-15T12:57:40.395Z,10.56
2023-02-15T12:59:50.826Z,10.57
2023-02-15T13:01:55.633Z,10.59
2023-02-15T13:04:01.239Z,10.61
2023-02-15T13:06:08.806Z,10.65
2023-02-15T13:08:16.486Z,10.66
2023-02-15T13:10:29.341Z,10.68
2023-02-15T13:12:34.534Z,10.69
2023-02-15T13:14:37.711Z,10.68
2023-02-15T13:16:41.699Z,10.68
2023-02-15T13:18:46.672Z,10.71
2023-02-15T13:20:50.560Z,10.74
2023-02-15T13:22:55.723Z,10.75
2023-02-15T13:25:04.458Z,10.74
2023-02-15T13:27:15.544Z,10.73
2023-02-15T13:29:24.260Z,10.74
2023-02-15T13:31:34.460Z,10.74
2023-02-15T13:33:39.145Z,10.78
2023-02-15T13:35:46.690Z,10.79
2023-02-15T13:38:13.126Z,10.81
2023-02-15T13:40:24.509Z,10.83
2023-02-15T13:42:32.352Z,10.84
2023-02-15T13:44:55.238Z,10.85
2023-02-15T13:47:13.922Z,10.87
2023-02-15T13:49:30.213Z,10.88
2023-02-15T13:51:41.233Z,10.90
2023-02-15T13:54:08.586Z,10.91
2023-02-15T13:56:20.255Z,10.91
2023-02-15T13:58:58.149Z,10.94
2023-02-15T14:01:12.531Z,10.94
2023-02-15T14:03:44.517Z,10.98
2023-02-15T14:06:02.372Z,10.99
2023-02-15T14:08:15.740Z,11.01
2023-02-15T14:10:40.075Z,11.02
2023-02-15T14:12:59.553Z,11.05
2023-02-15T14:15:20.129Z,11.08
2023-02-15T14:17:29.203Z,11.14
2023-02-15T14:19:39.747Z,11.17
2023-02-15T14:21:49.182Z,11.21
2023-02-15T14:24:09.170Z,11.19
2023-02-15T14:26:18.920Z,11.19
2023-02-15T14:28:31.056Z,11.18
2023-02-15T14:30:35.917Z,11.20
2023-02-15T14:32:43.285Z,11.19
2023-02-15T14:34:50.911Z,11.23
2023-02-15T14:36:54.313Z,11.23
2023-02-15T14:39:29.098Z,11.25
2023-02-15T14:41:38.739Z,11.27
2023-02-15T14:43:58.883Z,11.25
2023-02-15T14:46:09.742Z,11.23
2023-02-15T14:48:22.612Z,11.24
2023-02-15T14:50:40.391Z,11.20
2023-02-15T14:53:37.907Z,11.20
2023-02-15T14:55:40.693Z,11.21
2023-02-15T14:57:59.300Z,11.18
2023-02-15T15:00:19.819Z,11.19
2023-02-15T15:02:27.179Z,11.20
2023-02-15T15:04:35.073Z,11.20
2023-02-15T15:06:41.363Z,11.15
2023-02-15T15:08:44.836Z,11.14
2023-02-15T15:10:49.092Z,11.12
2023-02-15T15:12:53.425Z,11.08
2023-02-15T15:14:56.548Z,11.09
2023-02-15T15:17:01.728Z,11.10
2023-02-15T15:19:07.217Z,11.12
2023-02-15T15:21:10.453Z,11.13
2023-02-15T15:23:50.188Z,11.13
2023-02-15T15:25:54.763Z,11.11
2023-02-15T15:27:57.688Z,11.13
2023-02-15T15:30:00.690Z,11.11
2023-02-15T15:32:05.256Z,11.12
2023-02-15T15:34:20.408Z,11.12
2023-02-15T15:37:09.259Z,11.13
2023-02-15T15:39:32.067Z,11.15
2023-02-15T15:41:43.863Z,11.15
2023-02-15T15:44:38.076Z,11.16
2023-02-15T15:47:12.626Z,11.17
2023-02-15T15:49:18.662Z,11.17
2023-02-15T15:51:25.697Z,11.16
2023-02-15T15:53:32.213Z,11.16
2023-02-15T15:55:36.525Z,11.17
2023-02-15T15:57:43.561Z,11.19
2023-02-15T15:59:48.260Z,11.18
2023-02-15T16:01:51.417Z,11.18
2023-02-15T16:03:57.141Z,11.18
2023-02-15T16:06:01.684Z,11.18
2023-02-15T16:08:05.368Z,11.18
2023-02-15T16:10:21.424Z,11.17
2023-02-15T16:12:25.113Z,11.17
2023-02-15T16:14:32.266Z,11.16
2023-02-15T16:16:35.120Z,11.15
2023-02-15T16:18:43.212Z,11.15
2023-02-15T16:20:53.957Z,11.14
2023-02-15T16:23:14.641Z,11.15
2023-02-15T16:25:33.460Z,11.15
2023-02-15T16:27:39.355Z,11.14
2023-02-15T16:29:42.241Z,11.15
2023-02-15T16:31:45.480Z,11.18
2023-02-15T16:33:48.605Z,11.18
2023-02-15T16:35:58.247Z,11.17
2023-02-15T16:38:01.129Z,11.18
2023-02-15T16:40:04.700Z,11.18
2023-02-15T16:42:07.862Z,11.19
2023-02-15T16:44:18.314Z,11.18
2023-02-15T16:46:27.844Z,11.18
2023-02-15T16:48:31.113Z,11.16
2023-02-15T16:50:36.649Z,11.13
2023-02-15T16:52:45.706Z,11.08
2023-02-15T16:54:53.014Z,11.09
2023-02-15T16:56:56.617Z,11.06
2023-02-15T16:59:01.226Z,11.04
2023-02-15T17:01:08.013Z,11.03
2023-02-15T17:03:26.519Z,10.99
2023-02-15T17:05:34.489Z,10.99
2023-02-15T17:07:43.377Z,10.98
2023-02-15T17:09:53.990Z,10.97
2023-02-15T17:11:58.848Z,10.96
2023-02-15T17:14:21.767Z,10.95
2023-02-15T17:16:34.095Z,10.94
2023-02-15T17:18:45.927Z,10.91
2023-02-15T17:20:50.866Z,10.88
2023-02-15T17:22:55.969Z,10.87
2023-02-15T17:25:01.643Z,10.84
2023-02-15T17:27:11.198Z,10.81
2023-02-15T17:29:33.968Z,10.77
2023-02-15T17:31:37.162Z,10.74
2023-02-15T17:33:40.839Z,10.72
2023-02-15T17:35:43.839Z,10.71
2023-02-15T17:37:49.057Z,10.71
2023-02-15T17:39:53.570Z,10.69
2023-02-15T17:41:56.318Z,10.68
2023-02-15T17:43:59.687Z,10.67
2023-02-15T17:46:02.617Z,10.66
2023-02-15T17:48:07.427Z,10.63
2023-02-15T17:50:16.484Z,10.64
2023-02-15T17:52:19.734Z,10.61
2023-02-15T17:54:39.869Z,10.60
2023-02-15T17:56:44.151Z,10.60
2023-02-15T17:58:46.937Z,10.60
2023-02-15T18:01:08.439Z,10.59
2023-02-15T18:03:30.651Z,10.56
2023-02-15T18:05:51.349Z,10.58
2023-02-15T18:08:11.914Z,10.58
2023-02-15T18:10:33.364Z,10.56
2023-02-15T18:12:38.937Z,10.55
2023-02-15T18:14:41.712Z,10.54
2023-02-15T18:16:46.539Z,10.55
2023-02-15T18:18:49.798Z,10.56
2023-02-15T18:20:52.673Z,10.57
2023-02-15T18:22:55.907Z,10.58
2023-02-15T18:24:59.134Z,10.58
2023-02-15T18:27:01.888Z,10.60
2023-02-15T18:29:06.115Z,10.60
2023-02-15T18:31:09.036Z,10.60
2023-02-15T18:33:25.966Z,10.63
2023-02-15T18:35:32.040Z,10.64
2023-02-15T18:37:35.182Z,10.66
2023-02-15T18:39:40.054Z,10.67
2023-02-15T18:41:43.112Z,10.68
2023-02-15T18:43:48.732Z,10.68
2023-02-15T18:45:52.890Z,10.70
2023-02-15T18:47:56.084Z,10.71
2023-02-15T18:49:58.900Z,10.69
2023-02-15T18:52:02.851Z,10.67
2023-02-15T18:54:05.742Z,10.66
2023-02-15T18:56:14.867Z,10.68
2023-02-15T18:58:19.669Z,10.67
2023-02-15T19:00:25.304Z,10.65
2023-02-15T19:02:29.568Z,10.63
2023-02-15T19:04:32.726Z,10.63
2023-02-15T19:06:35.853Z,10.62
2023-02-15T19:08:38.908Z,10.61
2023-02-15T19:10:41.689Z,10.60
2023-02-15T19:12:45.072Z,10.59
2023-02-15T19:14:48.023Z,10.60
2023-02-15T19:16:50.871Z,10.60
2023-02-15T19:18:55.155Z,10.60
2023-02-15T19:20:58.018Z,10.59
2023-02-15T19:23:02.570Z,10.59
2023-02-15T19:25:08.770Z,10.59
2023-02-15T19:27:21.182Z,10.59
2023-02-15T19:29:28.715Z,10.60
2023-02-15T19:31:34.018Z,10.63
2023-02-15T19:33:37.902Z,10.64
2023-02-15T19:35:42.114Z,10.64
2023-02-15T19:37:47.798Z,10.63
2023-02-15T19:39:51.093Z,10.65
2023-02-15T19:41:54.354Z,10.66
2023-02-15T19:43:57.420Z,10.65
2023-02-15T19:46:00.428Z,10.65
2023-02-15T19:48:03.294Z,10.63
2023-02-15T19:50:06.895Z,10.63
2023-02-15T19:52:18.073Z,10.61
2023-02-15T19:54:29.196Z,10.59
2023-02-15T19:56:32.172Z,10.58
2023-02-15T19:58:35.156Z,10.56
2023-02-15T20:00:38.048Z,10.57
2023-02-15T20:02:40.825Z,10.55
2023-02-15T20:04:43.869Z,10.53
2023-02-15T20:06:48.427Z,10.52
2023-02-15T20:08:52.704Z,10.52
2023-02-15T20:10:55.487Z,10.52
2023-02-15T20:12:58.810Z,10.49
2023-02-15T20:15:01.886Z,10.49
2023-02-15T20:17:04.876Z,10.48
2023-02-15T20:19:07.730Z,10.48
2023-02-15T20:21:15.805Z,10.48
2023-02-15T20:23:20.905Z,10.49
2023-02-15T20:25:27.404Z,10.48
2023-02-15T20:27:30.414Z,10.46
2023-02-15T20:29:33.285Z,10.45
2023-02-15T20:31:36.374Z,10.46
2023-02-15T20:33:39.301Z,10.47
2023-02-15T20:35:42.686Z,10.46
2023-02-15T20:37:47.140Z,10.44
2023-02-15T20:39:51.131Z,10.44
2023-02-15T20:41:55.538Z,10.41
2023-02-15T20:43:58.279Z,10.41
2023-02-15T20:46:02.005Z,10.38
2023-02-15T20:48:05.495Z,10.36
2023-02-15T20:50:08.801Z,10.34
2023-02-15T20:52:19.303Z,10.34
2023-02-15T20:54:24.696Z,10.32
2023-02-15T20:56:27.465Z,10.33
2023-02-15T20:58:32.270Z,10.32
2023-02-15T21:00:35.018Z,10.30
2023-02-15T21:02:37.794Z,10.29
2023-02-15T21:04:40.569Z,10.29
2023-02-15T21:06:43.489Z,10.26
2023-02-15T21:08:47.559Z,10.27
2023-02-15T21:10:52.681Z,10.25
2023-02-15T21:12:55.572Z,10.24
2023-02-15T21:14:59.774Z,10.23
2023-02-15T21:17:03.033Z,10.23
2023-02-15T21:19:13.634Z,10.23
2023-02-15T21:21:23.572Z,10.23
2023-02-15T21:23:30.092Z,10.23
2023-02-15T21:25:35.428Z,10.24
2023-02-15T21:27:38.160Z,10.24
2023-02-15T21:29:41.087Z,10.24
2023-02-15T21:31:45.906Z,10.23
2023-02-15T21:33:49.028Z,10.21
2023-02-15T21:35:54.120Z,10.18
2023-02-15T21:37:57.552Z,10.18
2023-02-15T21:40:00.462Z,10.18
2023-02-15T21:42:21.014Z,10.18
2023-02-15T21:44:42.984Z,10.15
2023-02-15T21:47:04.556Z,10.13
2023-02-15T21:49:07.612Z,10.13
2023-02-15T21:51:27.956Z,10.14
2023-02-15T21:53:35.237Z,10.15
2023-02-15T21:55:38.212Z,10.15
2023-02-15T21:57:40.960Z,10.14
2023-02-15T21:59:43.797Z,10.13
2023-02-15T22:01:50.581Z,10.12
2023-02-15T22:03:55.856Z,10.12
2023-02-15T22:05:58.724Z,10.11
2023-02-15T22:08:01.810Z,10.13
2023-02-15T22:10:04.794Z,10.12
2023-02-15T22:12:15.726Z,10.12
2023-02-15T22:14:37.200Z,10.11
2023-02-15T22:16:40.190Z,10.11
2023-02-15T22:18:45.817Z,10.11
2023-02-15T22:20:49.085Z,10.11
2023-02-15T22:22:52.959Z,10.07
2023-02-15T22:24:55.677Z,10.08
2023-02-15T22:26:59.243Z,10.08
2023-02-15T22:29:02.207Z,10.07
2023-02-15T22:31:06.214Z,10.07
2023-02-15T22:33:22.566Z,10.08
2023-02-15T22:35:30.548Z,10.07
2023-02-15T22:37:33.305Z,10.06
2023-02-15T22:39:36.156Z,10.08
2023-02-15T22:41:39.055Z,10.05
2023-02-15T22:43:43.630Z,10.03
2023-02-15T22:45:46.595Z,10.02
2023-02-15T22:47:50.978Z,10.01
2023-02-15T22:49:54.430Z,9.99
2023-02-15T22:51:58.770Z,9.97
2023-02-15T22:54:01.624Z,9.95
2023-02-15T22:56:07.900Z,9.98
2023-02-15T22:58:17.493Z,9.94
2023-02-15T23:00:22.238Z,9.92
2023-02-15T23:02:25.046Z,9.90
2023-02-15T23:04:30.684Z,9.93
2023-02-15T23:06:35.246Z,9.92
2023-02-15T23:08:39.373Z,9.91
2023-02-15T23:10:44.574Z,9.91
2023-02-15T23:13:01.691Z,9.88
2023-02-15T23:15:04.640Z,9.88
2023-02-15T23:17:07.580Z,9.87
2023-02-15T23:19:13.740Z,9.86
2023-02-15T23:21:21.660Z,9.86
2023-02-15T23:23:30.051Z,9.85
2023-02-15T23:25:34.158Z,9.86
2023-02-15T23:27:54.262Z,9.84
2023-02-15T23:29:57.250Z,9.86
2023-02-15T23:32:00.261Z,9.86
2023-02-15T23:34:13.510Z,9.87
2023-02-15T23:36:26.445Z,9.87
2023-02-15T23:38:31.754Z,9.88
2023-02-15T23:40:53.374Z,9.87
2023-02-15T23:42:56.216Z,9.85
2023-02-15T23:44:59.264Z,9.86
2023-02-15T23:47:02.067Z,9.87
2023-02-15T23:49:14.685Z,9.88
2023-02-15T23:51:18.240Z,9.89
2023-02-15T23:53:21.000Z,9.88
2023-02-15T23:55:25.985Z,9.86
2023-02-15T23:57:30.151Z,9.83
2023-02-15T23:59:33.591Z,9.87
